createdAt,value
2019-04-28T00:02:40.842Z,44.87
2019-04-28T00:05:48.341Z,43.90
2019-04-28T00:08:55.846Z,40.80
2019-04-28T00:12:04.136Z,40.53
2019-04-28T00:15:12.363Z,40.67
2019-04-28T00:18:21.969Z,39.00
2019-04-28T00:21:48.516Z,38.73
2019-04-28T00:25:14.406Z,36.20
2019-04-28T00:28:21.958Z,38.33
2019-04-28T00:31:31.140Z,40.70
2019-04-28T00:34:38.775Z,40.83
2019-04-28T00:37:46.436Z,36.83
2019-04-28T00:40:54.046Z,40.13
2019-04-28T00:44:02.069Z,39.30
2019-04-28T00:47:11.080Z,36.97
2019-04-28T00:50:18.849Z,37.07
2019-04-28T00:53:26.641Z,39.03
2019-04-28T00:56:34.197Z,36.00
2019-04-28T00:59:54.155Z,36.17
2019-04-28T01:02:51.181Z,33.43
2019-04-28T01:05:58.704Z,34.53
2019-04-28T01:09:08.524Z,34.60
2019-04-28T01:12:17.643Z,36.37
2019-04-28T01:15:35.679Z,34.50
2019-04-28T01:19:10.052Z,35.00
2019-04-28T01:22:20.156Z,33.27
2019-04-28T01:25:29.872Z,33.73
2019-04-28T01:28:39.821Z,32.40
2019-04-28T01:31:56.912Z,31.67
2019-04-28T01:35:04.528Z,33.50
2019-04-28T01:38:12.304Z,35.10
2019-04-28T01:41:20.174Z,35.87
2019-04-28T01:44:30.048Z,32.80
2019-04-28T01:47:37.485Z,31.50
2019-04-28T01:50:45.043Z,33.33
2019-04-28T01:53:52.594Z,32.30
2019-04-28T01:57:01.414Z,32.10
2019-04-28T02:00:21.887Z,31.20
2019-04-28T02:03:22.193Z,33.80
2019-04-28T02:06:30.065Z,30.53
2019-04-28T02:09:39.581Z,33.27
2019-04-28T02:12:50.359Z,30.63
2019-04-28T02:16:00.094Z,33.13
2019-04-28T02:19:07.520Z,31.90
2019-04-28T02:22:40.010Z,32.70
2019-04-28T02:25:47.576Z,34.60
2019-04-28T02:28:55.212Z,35.40
2019-04-28T02:32:03.420Z,32.63
2019-04-28T02:35:11.019Z,32.27
2019-04-28T02:38:20.836Z,31.87
2019-04-28T02:41:27.698Z,33.53
2019-04-28T02:44:35.387Z,32.43
2019-04-28T02:47:43.087Z,33.77
2019-04-28T02:50:56.793Z,35.13
2019-04-28T02:54:04.342Z,35.40
2019-04-28T02:57:11.863Z,34.37
2019-04-28T03:00:21.612Z,35.37
2019-04-28T03:03:30.825Z,35.23
2019-04-28T03:06:40.545Z,32.90
2019-04-28T03:09:47.135Z,32.40
2019-04-28T03:12:55.560Z,31.70
2019-04-28T03:16:03.276Z,35.50
2019-04-28T03:19:10.994Z,35.30
2019-04-28T03:22:20.436Z,34.83
2019-04-28T03:25:40.727Z,38.07
2019-04-28T03:28:53.204Z,36.50
2019-04-28T03:32:28.536Z,35.20
2019-04-28T03:35:15.521Z,37.60
2019-04-28T03:38:23.058Z,36.97
2019-04-28T03:41:31.203Z,39.10
2019-04-28T03:44:41.429Z,37.97
2019-04-28T03:47:50.909Z,40.77
2019-04-28T03:51:00.365Z,41.50
2019-04-28T03:54:10.282Z,41.97
2019-04-28T03:57:21.517Z,43.30
2019-04-28T04:00:31.344Z,41.60
2019-04-28T04:03:41.492Z,46.93
2019-04-28T04:06:47.968Z,42.83
2019-04-28T04:10:17.046Z,40.90
2019-04-28T04:13:33.010Z,42.70
2019-04-28T04:17:02.320Z,42.47
2019-04-28T04:20:11.079Z,41.67
2019-04-28T04:23:22.742Z,45.87
2019-04-28T04:26:27.760Z,43.60
2019-04-28T04:29:35.280Z,46.00
2019-04-28T04:32:44.993Z,40.00
2019-04-28T04:35:52.577Z,42.23
2019-04-28T04:39:01.812Z,40.03
2019-04-28T04:42:10.698Z,38.07
2019-04-28T04:45:20.251Z,42.53
2019-04-28T04:48:27.472Z,42.93
2019-04-28T04:51:35.103Z,39.20
2019-04-28T04:54:42.671Z,43.10
2019-04-28T04:57:50.774Z,44.03
2019-04-28T05:01:10.594Z,44.20
2019-04-28T05:04:36.960Z,43.30
2019-04-28T05:07:44.480Z,41.83
2019-04-28T05:10:51.978Z,41.47
2019-04-28T05:13:59.749Z,40.73
2019-04-28T05:17:08.016Z,40.70
2019-04-28T05:20:15.818Z,43.77
2019-04-28T05:23:43.268Z,43.67
2019-04-28T05:26:51.594Z,41.77
2019-04-28T05:30:03.787Z,43.23
2019-04-28T05:33:10.397Z,46.97
2019-04-28T05:36:17.862Z,44.63
2019-04-28T05:39:25.360Z,47.10
2019-04-28T05:42:33.993Z,44.17
2019-04-28T05:45:42.779Z,42.50
2019-04-28T05:49:22.680Z,44.70
2019-04-28T05:53:02.539Z,40.50
2019-04-28T05:56:20.348Z,43.30
2019-04-28T06:00:03.650Z,41.63
2019-04-28T06:03:13.238Z,43.43
2019-04-28T06:06:22.293Z,42.20
2019-04-28T06:09:36.179Z,45.50
2019-04-28T06:12:43.742Z,55.10
2019-04-28T06:15:52.611Z,44.87
2019-04-28T06:19:00.326Z,52.40
2019-04-28T06:22:08.117Z,60.07
2019-04-28T06:25:15.749Z,48.77
2019-04-28T06:28:24.414Z,45.90
2019-04-28T06:31:31.972Z,61.50
2019-04-28T06:34:39.701Z,78.10
2019-04-28T06:37:47.381Z,58.60
2019-04-28T06:40:54.930Z,45.77
2019-04-28T06:44:02.520Z,59.63
2019-04-28T06:47:10.077Z,57.57
2019-04-28T06:50:17.762Z,44.80
2019-04-28T06:53:26.958Z,53.97
2019-04-28T06:56:34.708Z,52.70
2019-04-28T06:59:43.459Z,48.73
2019-04-28T07:02:51.034Z,67.27
2019-04-28T07:05:58.604Z,53.57
2019-04-28T07:09:09.062Z,57.17
2019-04-28T07:12:16.589Z,41.93
2019-04-28T07:15:24.321Z,43.67
2019-04-28T07:18:32.392Z,39.00
2019-04-28T07:21:49.352Z,39.77
2019-04-28T07:24:57.129Z,39.30
2019-04-28T07:28:05.010Z,41.97
2019-04-28T07:31:12.959Z,40.90
2019-04-28T07:34:20.525Z,51.70
2019-04-28T07:37:28.058Z,37.60
2019-04-28T07:40:35.654Z,36.13
2019-04-28T07:43:43.222Z,27.50
2019-04-28T07:46:50.796Z,28.43
2019-04-28T07:49:58.322Z,25.63
2019-04-28T07:53:17.202Z,30.50
2019-04-28T07:56:24.958Z,25.47
2019-04-28T07:59:32.576Z,24.67
2019-04-28T08:02:40.116Z,26.87
2019-04-28T08:05:47.693Z,25.43
2019-04-28T08:08:55.160Z,23.37
2019-04-28T08:12:03.314Z,21.17
2019-04-28T08:15:11.968Z,19.30
2019-04-28T08:18:19.596Z,20.17
2019-04-28T08:21:27.245Z,23.33
2019-04-28T08:24:34.743Z,25.77
2019-04-28T08:27:42.350Z,19.63
2019-04-28T08:30:49.852Z,19.70
2019-04-28T08:34:03.225Z,17.50
2019-04-28T08:37:10.764Z,21.47
2019-04-28T08:40:18.334Z,21.47
2019-04-28T08:43:25.876Z,21.80
2019-04-28T08:46:33.430Z,20.30
2019-04-28T08:49:40.966Z,18.10
2019-04-28T08:52:49.829Z,14.35
2019-04-28T08:55:57.376Z,14.37
2019-04-28T08:59:05.312Z,36.30
2019-04-28T09:02:12.962Z,11.47
2019-04-28T09:05:20.592Z,12.60
2019-04-28T09:08:28.340Z,14.03
2019-04-28T09:11:35.791Z,11.17
2019-04-28T09:14:43.490Z,13.30
2019-04-28T09:17:51.241Z,42.20
2019-04-28T09:20:59.864Z,16.47
2019-04-28T09:24:07.380Z,21.37
2019-04-28T09:27:18.657Z,12.90
2019-04-28T09:30:27.499Z,17.70
2019-04-28T09:33:35.147Z,34.93
2019-04-28T09:36:42.768Z,32.47
2019-04-28T09:40:12.198Z,19.27
2019-04-28T09:43:44.525Z,23.80
2019-04-28T09:46:52.189Z,21.70
2019-04-28T09:49:59.780Z,12.80
2019-04-28T09:53:08.364Z,16.57
2019-04-28T09:56:15.921Z,17.30
2019-04-28T09:59:23.515Z,18.30
2019-04-28T10:02:30.940Z,18.50
2019-04-28T10:05:38.560Z,12.87
2019-04-28T10:08:46.238Z,11.80
2019-04-28T10:11:54.015Z,13.00
2019-04-28T10:15:01.639Z,10.77
2019-04-28T10:18:09.174Z,10.43
2019-04-28T10:21:16.708Z,16.73
2019-04-28T10:24:24.561Z,26.00
2019-04-28T10:27:32.127Z,12.20
2019-04-28T10:30:39.765Z,12.70
2019-04-28T10:33:50.958Z,11.83
2019-04-28T10:36:58.597Z,11.07
2019-04-28T10:40:16.523Z,12.10
2019-04-28T10:43:24.220Z,10.17
2019-04-28T10:46:32.186Z,10.93
2019-04-28T10:49:39.775Z,11.17
2019-04-28T10:52:48.972Z,13.47
2019-04-28T10:55:56.721Z,14.80
2019-04-28T10:59:05.982Z,14.50
2019-04-28T11:02:13.479Z,18.93
2019-04-28T11:05:28.234Z,15.97
2019-04-28T11:08:43.752Z,15.27
2019-04-28T11:11:51.338Z,20.13
2019-04-28T11:15:00.733Z,14.90
2019-04-28T11:18:10.561Z,17.67
2019-04-28T11:21:19.696Z,17.00
2019-04-28T11:24:27.338Z,16.83
2019-04-28T11:27:35.697Z,16.97
2019-04-28T11:30:43.981Z,19.73
2019-04-28T11:34:11.825Z,18.37
2019-04-28T11:37:19.625Z,17.83
2019-04-28T11:40:27.339Z,17.63
2019-04-28T11:43:36.891Z,16.30
2019-04-28T11:46:45.522Z,17.60
2019-04-28T11:49:53.043Z,23.67
2019-04-28T11:53:00.531Z,19.60
2019-04-28T11:56:08.063Z,17.53
2019-04-28T11:59:16.369Z,17.37
2019-04-28T12:02:24.359Z,17.80
2019-04-28T12:05:48.261Z,15.70
2019-04-28T12:08:58.902Z,16.17
2019-04-28T12:12:12.880Z,18.13
2019-04-28T12:15:41.523Z,17.27
2019-04-28T12:18:57.653Z,17.23
2019-04-28T12:22:05.818Z,16.80
2019-04-28T12:25:15.099Z,19.90
2019-04-28T12:28:23.614Z,16.93
2019-04-28T12:31:31.599Z,17.20
2019-04-28T12:34:39.294Z,15.80
2019-04-28T12:37:48.413Z,15.73
2019-04-28T12:40:56.101Z,17.53
2019-04-28T12:44:04.274Z,17.87
2019-04-28T12:47:11.874Z,17.50
2019-04-28T12:50:27.586Z,18.63
2019-04-28T12:53:35.533Z,16.50
2019-04-28T12:56:45.680Z,13.97
2019-04-28T13:00:09.321Z,13.93
2019-04-28T13:03:36.089Z,13.60
2019-04-28T13:06:59.074Z,12.00
2019-04-28T13:10:07.321Z,15.00
2019-04-28T13:13:14.915Z,16.60
2019-04-28T13:16:24.145Z,20.13
2019-04-28T13:19:31.810Z,19.40
2019-04-28T13:22:41.076Z,37.37
2019-04-28T13:25:48.740Z,29.93
2019-04-28T13:28:57.779Z,25.80
2019-04-28T13:32:05.405Z,23.13
2019-04-28T13:35:14.607Z,21.03
2019-04-28T13:38:22.280Z,22.20
2019-04-28T13:41:31.049Z,24.07
2019-04-28T13:44:55.954Z,28.33
2019-04-28T13:48:03.551Z,24.20
2019-04-28T13:51:11.202Z,23.90
2019-04-28T13:54:20.489Z,22.53
2019-04-28T13:57:30.601Z,26.70
2019-04-28T14:01:09.701Z,27.47
2019-04-28T14:04:29.911Z,27.70
2019-04-28T14:07:38.737Z,29.37
2019-04-28T14:10:46.406Z,26.93
2019-04-28T14:13:54.237Z,25.70
2019-04-28T14:17:01.811Z,24.67
2019-04-28T14:20:10.505Z,27.10
2019-04-28T14:23:19.699Z,24.93
2019-04-28T14:26:28.015Z,24.70
2019-04-28T14:29:35.559Z,23.40
2019-04-28T14:32:43.139Z,23.30
2019-04-28T14:35:50.710Z,31.40
2019-04-28T14:38:58.331Z,46.10
2019-04-28T14:42:05.967Z,46.63
2019-04-28T14:45:14.039Z,24.20
2019-04-28T14:48:21.653Z,31.90
2019-04-28T14:51:29.248Z,24.00
2019-04-28T14:54:38.479Z,24.77
2019-04-28T14:57:46.031Z,22.77
2019-04-28T15:00:59.325Z,21.83
2019-04-28T15:04:12.328Z,21.40
2019-04-28T15:07:38.905Z,22.83
2019-04-28T15:11:09.345Z,19.70
2019-04-28T15:14:16.940Z,19.23
2019-04-28T15:17:25.273Z,18.40
2019-04-28T15:20:34.324Z,17.30
2019-04-28T15:23:43.961Z,17.40
2019-04-28T15:26:51.539Z,17.63
2019-04-28T15:29:59.058Z,19.47
2019-04-28T15:33:07.147Z,19.60
2019-04-28T15:36:14.744Z,19.10
2019-04-28T15:39:22.443Z,19.43
2019-04-28T15:42:30.575Z,19.87
2019-04-28T15:45:38.206Z,21.30
2019-04-28T15:48:47.250Z,18.80
2019-04-28T15:51:54.812Z,20.97
2019-04-28T15:55:03.604Z,18.90
2019-04-28T15:58:31.627Z,21.00
2019-04-28T16:01:39.139Z,19.73
2019-04-28T16:04:47.218Z,19.20
2019-04-28T16:07:57.519Z,19.07
2019-04-28T16:11:05.387Z,21.27
2019-04-28T16:14:12.863Z,22.43
2019-04-28T16:17:20.382Z,21.60
2019-04-28T16:20:29.736Z,23.77
2019-04-28T16:23:38.671Z,21.07
2019-04-28T16:26:46.409Z,23.03
2019-04-28T16:29:54.963Z,20.87
2019-04-28T16:33:02.583Z,22.30
2019-04-28T16:36:11.996Z,22.20
2019-04-28T16:39:19.547Z,25.37
2019-04-28T16:42:30.874Z,27.07
2019-04-28T16:45:38.483Z,62.60
2019-04-28T16:48:46.088Z,32.60
2019-04-28T16:51:53.735Z,32.33
2019-04-28T16:55:38.399Z,42.33
2019-04-28T16:59:16.029Z,34.37
2019-04-28T17:02:40.501Z,29.13
2019-04-28T17:05:48.116Z,44.77
2019-04-28T17:08:55.738Z,40.93
2019-04-28T17:12:03.270Z,42.80
2019-04-28T17:15:10.995Z,33.23
2019-04-28T17:18:18.763Z,41.40
2019-04-28T17:21:27.065Z,42.70
2019-04-28T17:24:34.653Z,37.67
2019-04-28T17:27:42.393Z,43.00
2019-04-28T17:30:50.169Z,48.40
2019-04-28T17:33:58.310Z,43.00
2019-04-28T17:37:07.729Z,38.00
2019-04-28T17:40:16.479Z,43.73
2019-04-28T17:43:24.003Z,40.60
2019-04-28T17:46:31.921Z,33.37
2019-04-28T17:49:41.197Z,37.23
2019-04-28T17:52:50.309Z,29.10
2019-04-28T17:55:57.753Z,35.33
2019-04-28T17:59:05.513Z,33.00
2019-04-28T18:02:31.985Z,35.00
2019-04-28T18:05:46.826Z,36.03
2019-04-28T18:08:54.439Z,39.10
2019-04-28T18:12:01.950Z,36.33
2019-04-28T18:15:31.825Z,29.07
2019-04-28T18:18:53.121Z,31.30
2019-04-28T18:22:01.048Z,32.60
2019-04-28T18:25:09.875Z,27.73
2019-04-28T18:28:18.780Z,30.67
2019-04-28T18:31:40.014Z,30.30
2019-04-28T18:34:59.544Z,39.83
2019-04-28T18:38:13.873Z,36.13
2019-04-28T18:41:58.712Z,23.67
2019-04-28T18:45:07.236Z,24.70
2019-04-28T18:48:15.251Z,23.70
2019-04-28T18:51:22.810Z,23.77
2019-04-28T18:54:30.463Z,28.40
2019-04-28T18:57:38.655Z,23.13
2019-04-28T19:00:52.711Z,24.80
2019-04-28T19:04:00.305Z,24.80
2019-04-28T19:07:09.409Z,25.07
2019-04-28T19:10:25.140Z,26.57
2019-04-28T19:13:34.846Z,24.77
2019-04-28T19:17:03.790Z,23.70
2019-04-28T19:20:13.706Z,23.80
2019-04-28T19:23:20.973Z,24.67
2019-04-28T19:26:28.538Z,26.83
2019-04-28T19:29:36.121Z,23.80
2019-04-28T19:32:43.675Z,27.70
2019-04-28T19:35:52.617Z,25.20
2019-04-28T19:39:03.339Z,27.67
2019-04-28T19:42:10.974Z,23.90
2019-04-28T19:45:21.034Z,24.20
2019-04-28T19:48:30.030Z,21.20
2019-04-28T19:51:38.038Z,23.67
2019-04-28T19:55:08.452Z,21.13
2019-04-28T19:58:33.469Z,22.43
2019-04-28T20:01:42.314Z,22.93
2019-04-28T20:04:50.303Z,23.77
2019-04-28T20:07:58.069Z,24.00
2019-04-28T20:11:05.675Z,24.53
2019-04-28T20:14:13.340Z,23.27
2019-04-28T20:17:21.083Z,22.57
2019-04-28T20:20:29.552Z,25.33
2019-04-28T20:23:37.073Z,29.90
2019-04-28T20:26:44.649Z,23.87
2019-04-28T20:29:52.471Z,24.30
2019-04-28T20:33:07.033Z,25.70
2019-04-28T20:36:15.595Z,24.27
2019-04-28T20:39:31.233Z,26.50
2019-04-28T20:42:53.232Z,28.53
2019-04-28T20:46:00.806Z,27.20
2019-04-28T20:49:10.233Z,25.60
2019-04-28T20:52:18.501Z,24.83
2019-04-28T20:55:26.013Z,28.90
2019-04-28T20:58:34.862Z,28.83
2019-04-28T21:01:42.452Z,23.57
2019-04-28T21:04:50.116Z,25.17
2019-04-28T21:07:57.742Z,26.70
2019-04-28T21:11:06.854Z,24.10
2019-04-28T21:14:14.463Z,25.13
2019-04-28T21:17:22.004Z,25.03
2019-04-28T21:20:30.904Z,25.93
2019-04-28T21:23:38.433Z,25.60
2019-04-28T21:26:45.988Z,26.23
2019-04-28T21:29:54.176Z,25.60
2019-04-28T21:33:01.707Z,23.40
2019-04-28T21:36:09.278Z,25.60
2019-04-28T21:39:16.772Z,27.87
2019-04-28T21:42:26.828Z,27.70
2019-04-28T21:45:52.031Z,26.00
2019-04-28T21:49:18.650Z,25.73
2019-04-28T21:52:26.334Z,22.40
2019-04-28T21:55:35.045Z,22.10
2019-04-28T21:58:42.655Z,22.00
2019-04-28T22:01:50.497Z,21.90
2019-04-28T22:04:58.190Z,25.57
2019-04-28T22:08:06.226Z,22.60
2019-04-28T22:11:14.510Z,21.57
2019-04-28T22:14:22.643Z,21.77
2019-04-28T22:17:30.315Z,20.63
2019-04-28T22:20:37.817Z,20.63
2019-04-28T22:24:16.274Z,18.67
2019-04-28T22:27:28.767Z,18.93
2019-04-28T22:30:36.227Z,16.30
2019-04-28T22:33:43.876Z,19.60
2019-04-28T22:36:51.577Z,21.00
2019-04-28T22:39:59.127Z,18.73
2019-04-28T22:43:06.968Z,17.73
2019-04-28T22:46:14.426Z,15.90
2019-04-28T22:49:23.312Z,15.80
2019-04-28T22:52:30.848Z,15.70
2019-04-28T22:55:52.841Z,15.07
2019-04-28T22:59:05.000Z,16.67
2019-04-28T23:02:15.547Z,19.17
2019-04-28T23:05:23.072Z,18.20
2019-04-28T23:08:31.701Z,17.93
2019-04-28T23:11:39.261Z,18.03
2019-04-28T23:14:46.717Z,19.67
2019-04-28T23:17:54.330Z,18.80
2019-04-28T23:21:05.406Z,21.03
2019-04-28T23:24:12.864Z,18.30
2019-04-28T23:27:20.335Z,17.70
2019-04-28T23:30:45.408Z,19.63
2019-04-28T23:33:54.205Z,19.57
2019-04-28T23:37:01.672Z,19.47
2019-04-28T23:40:09.131Z,19.80
2019-04-28T23:43:20.123Z,19.37
2019-04-28T23:46:46.428Z,20.50
2019-04-28T23:49:53.995Z,19.90
2019-04-28T23:53:11.048Z,20.57
2019-04-28T23:56:18.507Z,18.53
2019-04-28T23:59:26.139Z,20.10
